Airfield :
LOGIN :

Register | Disclaimer

   EN    FR    IT 

 










Legend :    VFR   Marginal VFR   IFR   Intensive IFR   Very Intensive IFR
Visi :
Ceiling :
>= 8 km
>= 3000ft
5 to 8 km
1000 to 3000 ft
1500m to 5 km
500 to 1000 ft
800 to 1500m
200 to 500 ft
< 800m
< 200 ft
Symbols :   Thunderstorms  Fog  Heavy snow  Heavy precipitations  Wind > 20 kt
SIGMETs :     Misc.  Thunderstorms  Icing  Turbulence  Mountain Waves  Volcanic Ashes







- Airport Elevation : 102 ft
- IATA code : EXT
- Download approach charts


EGTE - Exeter

CURRENT METAR :
  • 241020Z 14007KT 9999 BKN011 17/15 Q1016

EXPIRED METARs :
  • 240950Z 18004KT 140V210 9999 BKN012 17/15 Q1016
  • 240920Z VRB03KT 9999 FEW007 BKN016 16/15 Q1017
  • 240850Z VRB03KT 9000 FEW007 SCT018 16/15 Q1016
  • 240820Z 00000KT 9000 FEW007 15/15 Q1016
  • 240750Z 26002KT 9000 FEW008 14/14 Q1016

TAF TAF EGTE
Valid from the 24 at 09:00 until the 24 at 18:00 UTC


240804Z 2409/2418 17005KT 9999 SCT008
BECMG 2409/2412 BKN008
TEMPO 2409/2418 6000 -RA BKN004
PROB40
TEMPO 2410/2418 3000 RADZ
No reported NOTAMs for that airfield.



MET'MAP, your aeronautical weather chart ! - Copyright ORBIFLY December 2007 - Disclaimer

ORBIFLY MET'MAP TEAM :

Programming & Development : Alexandra Zaïnal
Concept & Development : Baudouin d'Aumeries
Co-Development & Prog : Marc-Olivier Méhu
Technical & hardware support : Manuel Goepfert

Contact : metmap@orbifly.com




SOURCES & CREDITS :

   NOAA